Time;durP1;ratioP1;P1;durP2;ratioP2;P2;SDS_P1;SDS_P2;PMS_P1;PMS_P2;Temp;Humidity;BMP_temperature;BMP_pressure;BME280_temperature;BME280_humidity;BME280_pressure;Samples;Min_cycle;Max_cycle;Signal;HPM_P1;HPM_P2
2021/01/29 00:00:38;;;;;;;;;103.75;94.00;;;;;;;;5001707;28;8856;-71
2021/01/29 00:03:05;;;;;;;;;102.00;94.00;;;;;;;;5001925;28;9087;-69
2021/01/29 00:05:33;;;;;;;;;98.25;89.25;;;;;;;;5002347;28;8975;-70
2021/01/29 00:07:59;;;;;;;;;97.75;89.75;;;;;;;;5001062;28;8854;-73
2021/01/29 00:10:25;;;;;;;;;105.00;92.50;;;;;;;;5003387;28;8848;-72
2021/01/29 00:12:51;;;;;;;;;101.50;93.50;;;;;;;;5000142;28;8839;-71
2021/01/29 00:15:18;;;;;;;;;97.00;87.75;;;;;;;;5003574;28;8832;-71
2021/01/29 00:17:44;;;;;;;;;104.25;93.00;;;;;;;;5000418;28;9779;-71
2021/01/29 00:20:11;;;;;;;;;112.00;94.75;;;;;;;;5002318;28;8971;-70
2021/01/29 00:22:38;;;;;;;;;100.50;95.25;;;;;;;;5001257;28;8844;-70
2021/01/29 00:25:04;;;;;;;;;103.75;95.25;;;;;;;;5000137;28;8982;-70
2021/01/29 00:27:30;;;;;;;;;99.50;89.75;;;;;;;;5000830;28;8857;-70
2021/01/29 00:29:56;;;;;;;;;99.50;88.00;;;;;;;;5002618;28;8844;-70
2021/01/29 00:32:22;;;;;;;;;99.75;90.50;;;;;;;;4999908;28;8848;-71
2021/01/29 00:34:48;;;;;;;;;100.75;92.25;;;;;;;;4996268;28;9698;-70
2021/01/29 00:37:14;;;;;;;;;109.00;96.50;;;;;;;;5002856;28;8963;-70
2021/01/29 00:39:41;;;;;;;;;104.25;92.75;;;;;;;;5003079;28;8855;-70
2021/01/29 00:42:07;;;;;;;;;112.75;104.25;;;;;;;;5000934;28;9466;-71
2021/01/29 00:44:32;;;;;;;;;115.50;100.50;;;;;;;;4999482;28;8864;-71
2021/01/29 00:46:58;;;;;;;;;108.75;101.75;;;;;;;;5000559;28;8964;-71
2021/01/29 00:49:24;;;;;;;;;111.25;99.25;;;;;;;;5002103;28;8840;-71
2021/01/29 00:51:53;;;;;;;;;108.75;97.50;;;;;;;;4999635;28;8981;-71
2021/01/29 00:54:19;;;;;;;;;109.50;101.50;;;;;;;;4996014;28;9044;-71
2021/01/29 00:56:46;;;;;;;;;104.25;97.25;;;;;;;;5002350;28;8849;-71
2021/01/29 00:59:12;;;;;;;;;109.75;97.50;;;;;;;;4999583;28;8843;-69
2021/01/29 01:01:38;;;;;;;;;110.00;98.00;;;;;;;;5001128;28;8878;-70
2021/01/29 01:04:04;;;;;;;;;101.25;91.75;;;;;;;;5001063;28;8963;-71
2021/01/29 01:06:30;;;;;;;;;104.25;94.75;;;;;;;;5000331;28;8823;-71
2021/01/29 01:08:55;;;;;;;;;103.75;95.25;;;;;;;;5002051;28;9670;-71
2021/01/29 01:11:21;;;;;;;;;99.75;93.25;;;;;;;;4999381;28;8897;-69
2021/01/29 01:13:48;;;;;;;;;98.50;90.75;;;;;;;;4995408;28;8961;-70
2021/01/29 01:16:14;;;;;;;;;102.50;95.75;;;;;;;;5002279;28;9007;-70
2021/01/29 01:18:41;;;;;;;;;100.25;91.00;;;;;;;;4999608;28;9101;-71
2021/01/29 01:21:07;;;;;;;;;107.50;99.00;;;;;;;;4999387;28;8956;-70
2021/01/29 01:23:32;;;;;;;;;108.00;95.00;;;;;;;;5000133;28;8985;-71
2021/01/29 01:25:58;;;;;;;;;103.50;89.75;;;;;;;;5001496;28;8971;-71
2021/01/29 01:28:24;;;;;;;;;106.50;99.00;;;;;;;;4998982;28;8881;-71
2021/01/29 01:30:51;;;;;;;;;104.75;95.50;;;;;;;;5002355;28;9579;-71
2021/01/29 01:33:17;;;;;;;;;106.75;97.25;;;;;;;;4995287;28;8858;-71
2021/01/29 01:35:43;;;;;;;;;103.25;94.00;;;;;;;;5001473;28;9054;-72
2021/01/29 01:38:09;;;;;;;;;105.75;95.00;;;;;;;;4999838;28;9557;-71
2021/01/29 01:40:36;;;;;;;;;105.50;95.50;;;;;;;;5000646;28;8851;-71
2021/01/29 01:43:03;;;;;;;;;108.00;99.00;;;;;;;;5000637;28;9002;-71
2021/01/29 01:45:49;;;;;;;;;109.25;98.00;;;;;;;;4999367;28;8847;-71
2021/01/29 01:48:19;;;;;;;;;108.75;101.00;;;;;;;;4998760;28;8869;-71
2021/01/29 01:50:47;;;;;;;;;107.25;99.25;;;;;;;;5001839;28;9657;-71
2021/01/29 01:53:23;;;;;;;;;103.25;95.50;;;;;;;;4999103;28;9602;-71
2021/01/29 01:55:51;;;;;;;;;97.75;86.00;;;;;;;;4995326;28;8979;-71
2021/01/29 01:58:17;;;;;;;;;106.75;92.25;;;;;;;;4994807;28;8969;-71
2021/01/29 02:00:44;;;;;;;;;101.00;89.75;;;;;;;;5001456;28;8857;-71
2021/01/29 02:03:13;;;;;;;;;107.75;97.75;;;;;;;;4999534;28;8875;-71
2021/01/29 02:05:41;;;;;;;;;103.00;91.25;;;;;;;;5000736;28;8989;-71
2021/01/29 02:08:08;;;;;;;;;103.50;91.75;;;;;;;;4999772;28;8892;-72
2021/01/29 02:10:34;;;;;;;;;105.25;96.00;;;;;;;;5001975;28;8827;-71
2021/01/29 02:13:02;;;;;;;;;102.75;88.75;;;;;;;;5004613;28;8983;-72
2021/01/29 02:15:29;;;;;;;;;100.75;85.50;;;;;;;;5003145;28;8951;-71
2021/01/29 02:18:03;;;;;;;;;104.00;94.75;;;;;;;;5005464;28;8866;-72
2021/01/29 02:20:47;;;;;;;;;110.25;100.50;;;;;;;;5003136;28;9022;-71
2021/01/29 02:23:35;;;;;;;;;99.75;90.50;;;;;;;;5003060;28;8886;-70
2021/01/29 02:26:19;;;;;;;;;102.50;96.00;;;;;;;;5001469;28;9044;-70
2021/01/29 02:29:04;;;;;;;;;106.25;96.75;;;;;;;;5002069;28;8846;-71
2021/01/29 02:31:39;;;;;;;;;102.25;93.50;;;;;;;;5001183;28;8963;-70
2021/01/29 02:34:25;;;;;;;;;103.00;93.50;;;;;;;;5003404;28;8856;-70
2021/01/29 02:37:09;;;;;;;;;108.75;97.50;;;;;;;;4998643;28;8842;-70
2021/01/29 02:39:59;;;;;;;;;101.50;90.50;;;;;;;;5002309;28;8963;-70
2021/01/29 02:42:45;;;;;;;;;102.00;91.50;;;;;;;;4986692;28;8852;-70
2021/01/29 02:45:17;;;;;;;;;109.50;96.75;;;;;;;;5004735;28;8976;-70
2021/01/29 02:47:48;;;;;;;;;100.25;93.00;;;;;;;;5001824;28;8969;-70
2021/01/29 02:50:19;;;;;;;;;103.25;95.75;;;;;;;;5004954;28;8840;-70
2021/01/29 02:52:51;;;;;;;;;108.75;96.75;;;;;;;;5001894;28;8835;-70
2021/01/29 02:55:22;;;;;;;;;105.50;89.25;;;;;;;;4997974;28;8947;-70
2021/01/29 02:57:54;;;;;;;;;108.00;97.25;;;;;;;;4998183;28;9071;-70
2021/01/29 03:00:23;;;;;;;;;99.50;87.50;;;;;;;;4998344;28;8854;-70
2021/01/29 03:02:51;;;;;;;;;107.75;100.00;;;;;;;;4997902;28;9051;-71
2021/01/29 03:05:18;;;;;;;;;109.50;98.75;;;;;;;;4997945;28;8965;-71
2021/01/29 03:07:48;;;;;;;;;108.50;95.25;;;;;;;;5004409;28;8958;-71
2021/01/29 03:10:18;;;;;;;;;111.25;98.75;;;;;;;;5001833;28;8901;-71
2021/01/29 03:12:45;;;;;;;;;70.50;53.25;;;;;;;;5004500;28;8844;-71
2021/01/29 03:15:15;;;;;;;;;109.25;96.25;;;;;;;;5002024;28;8851;-71
2021/01/29 03:17:44;;;;;;;;;112.75;99.75;;;;;;;;5003665;28;8897;-71
2021/01/29 03:20:14;;;;;;;;;99.50;83.75;;;;;;;;5001940;28;8959;-70
2021/01/29 03:22:42;;;;;;;;;111.00;100.50;;;;;;;;5003245;28;8970;-71
2021/01/29 03:25:12;;;;;;;;;110.00;97.00;;;;;;;;5002504;28;8852;-71
2021/01/29 03:27:40;;;;;;;;;111.00;100.00;;;;;;;;5003077;28;8973;-70
2021/01/29 03:30:10;;;;;;;;;109.50;95.75;;;;;;;;5002355;28;8952;-70
2021/01/29 03:32:38;;;;;;;;;105.75;98.00;;;;;;;;5002831;28;8839;-71
2021/01/29 03:35:07;;;;;;;;;102.50;99.25;;;;;;;;5002724;28;8850;-71
2021/01/29 03:37:36;;;;;;;;;102.75;96.00;;;;;;;;5002219;28;8998;-71
2021/01/29 03:40:05;;;;;;;;;112.75;101.25;;;;;;;;5004592;28;8845;-70
2021/01/29 03:42:33;;;;;;;;;102.25;89.50;;;;;;;;5002706;28;8871;-70
2021/01/29 03:45:02;;;;;;;;;104.75;98.50;;;;;;;;5002144;28;8977;-71
2021/01/29 03:47:32;;;;;;;;;108.75;94.25;;;;;;;;5003010;28;8871;-70
2021/01/29 03:50:06;;;;;;;;;105.25;99.00;;;;;;;;4999873;28;8834;-70
2021/01/29 03:52:38;;;;;;;;;111.50;105.25;;;;;;;;4992131;28;9670;-70
2021/01/29 03:55:11;;;;;;;;;110.50;100.25;;;;;;;;5002561;28;8832;-70
2021/01/29 03:57:43;;;;;;;;;104.00;96.50;;;;;;;;5002786;28;8831;-71
2021/01/29 04:00:14;;;;;;;;;111.50;100.50;;;;;;;;5001689;28;8914;-70
2021/01/29 04:02:46;;;;;;;;;108.75;99.75;;;;;;;;4999024;28;8964;-70
2021/01/29 04:05:16;;;;;;;;;114.50;108.75;;;;;;;;5001084;28;8871;-70
2021/01/29 04:07:48;;;;;;;;;118.25;104.00;;;;;;;;5003126;28;8886;-71
2021/01/29 04:10:16;;;;;;;;;107.25;93.50;;;;;;;;5000865;28;8823;-70
2021/01/29 04:12:44;;;;;;;;;111.25;102.50;;;;;;;;4996144;28;8879;-71
2021/01/29 04:15:13;;;;;;;;;114.25;101.00;;;;;;;;4996488;28;8963;-71
2021/01/29 04:17:43;;;;;;;;;110.50;101.50;;;;;;;;5002486;28;8965;-71
2021/01/29 04:20:12;;;;;;;;;107.50;100.75;;;;;;;;5001110;28;8966;-70
2021/01/29 04:22:40;;;;;;;;;107.25;99.00;;;;;;;;5000323;28;9007;-71
2021/01/29 04:25:11;;;;;;;;;108.75;100.00;;;;;;;;5001878;28;8886;-71
2021/01/29 04:27:39;;;;;;;;;107.50;97.25;;;;;;;;5001123;28;8828;-70
2021/01/29 04:30:09;;;;;;;;;104.25;95.50;;;;;;;;4998082;28;8965;-70
2021/01/29 04:32:37;;;;;;;;;111.50;104.00;;;;;;;;4993225;28;8849;-70
2021/01/29 04:35:04;;;;;;;;;106.50;95.25;;;;;;;;4995565;28;9010;-70
2021/01/29 04:37:32;;;;;;;;;106.75;101.75;;;;;;;;5000853;28;9053;-70
2021/01/29 04:40:02;;;;;;;;;109.50;99.50;;;;;;;;5002099;28;8969;-69
2021/01/29 04:42:50;;;;;;;;;118.50;104.75;;;;;;;;4996641;28;8924;-70
2021/01/29 04:45:33;;;;;;;;;111.50;99.25;;;;;;;;4999659;28;8842;-70
2021/01/29 04:48:02;;;;;;;;;111.50;104.25;;;;;;;;4994344;28;8983;-71
2021/01/29 04:50:32;;;;;;;;;106.00;100.75;;;;;;;;5001936;28;8943;-70
2021/01/29 04:53:16;;;;;;;;;117.75;108.00;;;;;;;;5000359;28;8904;-70
2021/01/29 04:56:05;;;;;;;;;122.00;103.50;;;;;;;;4999938;28;9001;-70
2021/01/29 04:58:33;;;;;;;;;113.00;101.50;;;;;;;;4998326;28;8831;-71
2021/01/29 05:01:21;;;;;;;;;108.75;95.75;;;;;;;;5001926;28;8962;-71
2021/01/29 05:03:58;;;;;;;;;117.75;102.00;;;;;;;;4964082;28;8878;-70
2021/01/29 05:06:46;;;;;;;;;114.50;101.25;;;;;;;;4996238;28;8932;-71
2021/01/29 05:09:30;;;;;;;;;110.25;97.75;;;;;;;;4994511;28;8935;-71
2021/01/29 05:12:17;;;;;;;;;117.75;105.00;;;;;;;;4992500;28;8963;-71
2021/01/29 05:15:02;;;;;;;;;115.00;103.50;;;;;;;;4995410;28;8878;-70
2021/01/29 05:17:54;;;;;;;;;123.25;113.25;;;;;;;;4997271;28;8849;-71
2021/01/29 05:20:41;;;;;;;;;117.50;105.25;;;;;;;;4960086;28;8954;-70
2021/01/29 05:23:14;;;;;;;;;110.50;97.75;;;;;;;;4961989;28;8988;-71
2021/01/29 05:26:08;;;;;;;;;105.00;97.25;;;;;;;;4995545;28;9763;-70
2021/01/29 05:28:41;;;;;;;;;111.50;102.25;;;;;;;;4991067;28;8869;-70
2021/01/29 05:31:19;;;;;;;;;106.25;99.25;;;;;;;;4995648;28;8909;-70
2021/01/29 05:33:55;;;;;;;;;112.75;105.50;;;;;;;;4995539;28;8947;-71
2021/01/29 05:36:30;;;;;;;;;114.25;101.25;;;;;;;;4991355;28;8839;-71
2021/01/29 05:39:09;;;;;;;;;110.75;100.25;;;;;;;;4996752;28;9738;-71
2021/01/29 05:41:53;;;;;;;;;111.75;100.00;;;;;;;;4996190;28;8828;-70
2021/01/29 05:44:52;;;;;;;;;111.75;98.75;;;;;;;;4994877;28;8969;-70
2021/01/29 05:47:24;;;;;;;;;106.75;100.75;;;;;;;;4998785;28;8862;-71
2021/01/29 05:50:02;;;;;;;;;113.00;99.75;;;;;;;;4991020;28;9679;-71
2021/01/29 05:52:47;;;;;;;;;104.00;94.25;;;;;;;;4989283;28;8831;-71
2021/01/29 05:55:26;;;;;;;;;107.75;98.00;;;;;;;;4991124;28;8855;-70
2021/01/29 05:58:07;;;;;;;;;108.00;97.50;;;;;;;;4987294;28;8858;-70
2021/01/29 06:00:42;;;;;;;;;106.00;101.25;;;;;;;;4996535;28;8991;-70
2021/01/29 06:03:24;;;;;;;;;105.75;99.75;;;;;;;;5000962;28;9563;-71
2021/01/29 06:06:02;;;;;;;;;103.25;95.25;;;;;;;;4995236;28;8839;-71
2021/01/29 06:08:47;;;;;;;;;102.25;91.50;;;;;;;;4995517;28;8981;-70
2021/01/29 06:11:28;;;;;;;;;97.00;77.75;;;;;;;;4999215;28;8838;-71
2021/01/29 06:14:18;;;;;;;;;109.25;98.25;;;;;;;;4986523;28;8989;-71
2021/01/29 06:17:05;;;;;;;;;101.75;92.75;;;;;;;;4994609;28;8843;-71
2021/01/29 06:19:49;;;;;;;;;104.00;94.00;;;;;;;;4997481;28;8839;-71
2021/01/29 06:22:34;;;;;;;;;111.50;99.50;;;;;;;;4998965;28;8953;-71
2021/01/29 06:25:21;;;;;;;;;103.50;94.75;;;;;;;;4992126;28;9018;-70
2021/01/29 06:28:03;;;;;;;;;104.00;95.25;;;;;;;;4994287;28;8965;-70
2021/01/29 06:30:44;;;;;;;;;110.50;102.00;;;;;;;;4996943;28;8957;-71
2021/01/29 06:33:16;;;;;;;;;113.75;101.75;;;;;;;;4999256;28;8959;-70
2021/01/29 06:35:55;;;;;;;;;120.50;106.25;;;;;;;;5000986;28;8895;-71
2021/01/29 06:38:39;;;;;;;;;110.75;102.00;;;;;;;;4999087;28;8821;-71
2021/01/29 06:41:38;;;;;;;;;110.75;103.25;;;;;;;;4998616;28;8942;-71
2021/01/29 06:44:11;;;;;;;;;123.50;110.50;;;;;;;;4917705;29;8999;-72
2021/01/29 06:47:01;;;;;;;;;107.25;99.25;;;;;;;;4918780;29;8984;-71
2021/01/29 06:49:57;;;;;;;;;108.50;98.50;;;;;;;;4960278;28;8847;-71
2021/01/29 06:52:41;;;;;;;;;122.75;116.25;;;;;;;;4993011;28;9557;-72
2021/01/29 06:55:14;;;;;;;;;108.00;97.50;;;;;;;;5000244;28;8962;-72
2021/01/29 06:58:01;;;;;;;;;112.75;102.50;;;;;;;;5002026;28;9735;-71
2021/01/29 07:00:35;;;;;;;;;111.25;97.50;;;;;;;;4998573;28;8982;-73
2021/01/29 07:03:14;;;;;;;;;118.75;104.25;;;;;;;;5002681;28;8981;-69
2021/01/29 07:05:58;;;;;;;;;107.50;99.50;;;;;;;;4999484;28;8854;-69
2021/01/29 07:08:38;;;;;;;;;114.25;104.00;;;;;;;;4972140;28;8948;-68
2021/01/29 07:11:09;;;;;;;;;117.50;102.00;;;;;;;;4992172;28;9648;-69
2021/01/29 07:13:46;;;;;;;;;107.00;101.25;;;;;;;;4997344;28;8984;-68
2021/01/29 07:16:20;;;;;;;;;114.00;105.50;;;;;;;;5004181;28;8888;-69
2021/01/29 07:19:04;;;;;;;;;128.25;109.75;;;;;;;;5001516;28;9082;-68
2021/01/29 07:21:38;;;;;;;;;120.25;114.00;;;;;;;;4997269;28;8847;-69
2021/01/29 07:24:15;;;;;;;;;109.25;102.50;;;;;;;;4995489;28;8858;-69
2021/01/29 07:26:51;;;;;;;;;110.75;100.50;;;;;;;;5001555;28;8851;-68
2021/01/29 07:29:33;;;;;;;;;112.75;105.00;;;;;;;;5000682;28;8823;-68
2021/01/29 07:32:04;;;;;;;;;120.00;106.00;;;;;;;;4996511;28;8963;-64
2021/01/29 07:34:32;;;;;;;;;109.50;100.50;;;;;;;;4989693;28;8921;-67
2021/01/29 07:37:15;;;;;;;;;109.00;99.75;;;;;;;;5002155;28;8832;-66
2021/01/29 07:39:59;;;;;;;;;119.75;104.00;;;;;;;;5001257;28;8965;-67
2021/01/29 07:42:36;;;;;;;;;110.75;103.50;;;;;;;;4999365;28;9042;-67
2021/01/29 07:45:13;;;;;;;;;120.00;105.00;;;;;;;;5000427;28;8981;-68
2021/01/29 07:47:47;;;;;;;;;116.00;105.00;;;;;;;;4999638;28;8875;-66
2021/01/29 07:50:24;;;;;;;;;109.50;95.75;;;;;;;;5000990;28;8952;-66
2021/01/29 07:52:53;;;;;;;;;96.50;81.75;;;;;;;;4994495;28;8864;-67
2021/01/29 07:55:22;;;;;;;;;105.50;95.00;;;;;;;;4990952;28;8835;-66
2021/01/29 07:57:58;;;;;;;;;110.00;100.00;;;;;;;;4990114;28;9549;-67
2021/01/29 08:00:30;;;;;;;;;103.50;93.75;;;;;;;;4990889;28;8913;-67
2021/01/29 08:03:25;;;;;;;;;100.75;92.00;;;;;;;;4992493;28;9005;-66
2021/01/29 08:05:58;;;;;;;;;99.75;87.75;;;;;;;;4992493;28;8870;-67
2021/01/29 08:08:27;;;;;;;;;98.75;85.50;;;;;;;;4999338;28;8864;-69
2021/01/29 08:10:55;;;;;;;;;101.50;90.25;;;;;;;;4998076;28;9753;-67
2021/01/29 08:13:25;;;;;;;;;101.25;88.75;;;;;;;;5001815;28;8995;-68
2021/01/29 08:16:05;;;;;;;;;98.75;88.25;;;;;;;;5002335;28;8833;-70
2021/01/29 08:18:40;;;;;;;;;95.50;78.00;;;;;;;;4995398;28;8892;-68
2021/01/29 08:21:12;;;;;;;;;98.50;86.50;;;;;;;;5001224;28;9563;-69
2021/01/29 08:23:42;;;;;;;;;99.50;93.00;;;;;;;;4989194;28;8875;-67
2021/01/29 08:26:29;;;;;;;;;101.25;90.00;;;;;;;;4993445;28;8847;-68
2021/01/29 08:29:25;;;;;;;;;101.75;92.25;;;;;;;;4991392;28;8854;-67
2021/01/29 08:32:05;;;;;;;;;110.00;93.00;;;;;;;;4995098;28;8827;-68
2021/01/29 08:34:42;;;;;;;;;98.50;81.75;;;;;;;;4999455;28;8858;-67
2021/01/29 08:37:26;;;;;;;;;110.00;93.00;;;;;;;;4999681;28;8959;-67
2021/01/29 08:39:55;;;;;;;;;102.50;92.75;;;;;;;;4995274;28;8827;-67
2021/01/29 08:42:35;;;;;;;;;98.25;89.00;;;;;;;;4999155;28;8879;-68
2021/01/29 08:45:22;;;;;;;;;104.25;93.00;;;;;;;;4997475;28;8869;-67
2021/01/29 08:47:55;;;;;;;;;105.75;93.75;;;;;;;;4989302;28;8841;-68
2021/01/29 08:50:27;;;;;;;;;107.50;92.50;;;;;;;;4990936;28;8829;-68
2021/01/29 08:53:13;;;;;;;;;101.00;87.25;;;;;;;;4994566;28;8977;-68
2021/01/29 08:55:52;;;;;;;;;101.75;91.50;;;;;;;;4973079;28;9571;-67
2021/01/29 08:58:24;;;;;;;;;101.25;91.75;;;;;;;;4997876;28;9022;-67
2021/01/29 09:00:58;;;;;;;;;103.50;89.50;;;;;;;;4994367;28;8981;-68
2021/01/29 09:03:28;;;;;;;;;94.25;80.50;;;;;;;;4994632;28;9073;-68
2021/01/29 09:06:01;;;;;;;;;100.50;92.75;;;;;;;;5000851;28;9748;-66
2021/01/29 09:08:27;;;;;;;;;98.50;87.75;;;;;;;;4997443;28;9726;-66
2021/01/29 09:11:04;;;;;;;;;98.75;86.25;;;;;;;;5000735;28;8848;-66
2021/01/29 09:13:32;;;;;;;;;98.50;86.00;;;;;;;;4997878;28;8989;-67
2021/01/29 09:16:01;;;;;;;;;95.00;82.75;;;;;;;;4999775;28;8857;-69
2021/01/29 09:18:30;;;;;;;;;96.25;87.00;;;;;;;;4992753;28;8847;-68
2021/01/29 09:21:08;;;;;;;;;94.75;79.00;;;;;;;;4998724;28;8865;-74
2021/01/29 09:23:38;;;;;;;;;96.25;84.00;;;;;;;;4941256;28;10987;-71
2021/01/29 09:26:11;;;;;;;;;96.50;84.00;;;;;;;;5016443;28;8989;-73
2021/01/29 09:28:37;;;;;;;;;98.25;89.25;;;;;;;;5017306;28;8945;-71
2021/01/29 09:31:07;;;;;;;;;98.50;89.25;;;;;;;;5020983;28;9009;-72
2021/01/29 09:33:36;;;;;;;;;94.50;80.25;;;;;;;;5017309;28;8850;-72
2021/01/29 09:36:04;;;;;;;;;93.50;73.25;;;;;;;;5016542;28;8980;-72
2021/01/29 09:38:34;;;;;;;;;94.50;80.75;;;;;;;;5018248;28;8969;-72
2021/01/29 09:41:06;;;;;;;;;39.25;30.50;;;;;;;;5017042;28;9644;-73
2021/01/29 09:43:42;;;;;;;;;94.25;77.25;;;;;;;;5018664;28;8874;-73
2021/01/29 09:46:08;;;;;;;;;92.25;78.25;;;;;;;;5017890;28;8854;-76
2021/01/29 09:48:36;;;;;;;;;95.75;83.00;;;;;;;;5011311;28;9681;-76
2021/01/29 09:51:05;;;;;;;;;88.50;73.25;;;;;;;;5018794;28;8840;-71
2021/01/29 09:53:35;;;;;;;;;93.00;74.75;;;;;;;;5017110;28;8880;-74
2021/01/29 09:56:04;;;;;;;;;92.25;74.75;;;;;;;;5018666;28;9065;-75
2021/01/29 09:58:34;;;;;;;;;79.00;64.00;;;;;;;;5017488;28;9772;-66
2021/01/29 10:01:02;;;;;;;;;18.25;11.25;;;;;;;;5018780;28;8960;-64
2021/01/29 10:03:31;;;;;;;;;84.75;68.00;;;;;;;;5016682;28;8981;-67
2021/01/29 10:05:58;;;;;;;;;79.00;64.50;;;;;;;;5015632;28;8840;-66
2021/01/29 10:08:32;;;;;;;;;84.75;69.00;;;;;;;;5014110;28;8990;-66
2021/01/29 10:11:01;;;;;;;;;56.50;46.00;;;;;;;;5018366;28;8968;-66
2021/01/29 10:13:35;;;;;;;;;90.50;72.75;;;;;;;;5013608;28;8961;-65
2021/01/29 10:16:16;;;;;;;;;91.00;69.75;;;;;;;;5018754;28;8844;-66
2021/01/29 10:18:43;;;;;;;;;82.00;69.00;;;;;;;;5009346;28;8868;-65
2021/01/29 10:21:14;;;;;;;;;83.25;69.25;;;;;;;;5017881;28;8966;-65
2021/01/29 10:23:43;;;;;;;;;85.00;69.25;;;;;;;;5018507;28;8866;-65
2021/01/29 10:26:16;;;;;;;;;87.75;70.50;;;;;;;;5017602;28;8855;-67
2021/01/29 10:28:54;;;;;;;;;84.50;70.00;;;;;;;;5019276;28;9797;-68
2021/01/29 10:31:22;;;;;;;;;92.00;72.00;;;;;;;;5014642;28;8927;-65
2021/01/29 10:33:49;;;;;;;;;87.00;71.00;;;;;;;;5016797;28;8839;-67
2021/01/29 10:36:22;;;;;;;;;90.75;69.25;;;;;;;;5023615;28;8856;-66
2021/01/29 10:38:51;;;;;;;;;90.25;72.75;;;;;;;;4972143;28;11395;-64
2021/01/29 10:41:23;;;;;;;;;79.50;66.75;;;;;;;;5010626;28;8868;-67
2021/01/29 10:43:53;;;;;;;;;91.00;72.00;;;;;;;;5009097;28;9068;-66
2021/01/29 10:46:34;;;;;;;;;84.50;66.25;;;;;;;;5008662;28;8848;-66
2021/01/29 10:49:05;;;;;;;;;91.00;72.25;;;;;;;;5013133;28;9114;-66
2021/01/29 11:14:21;;;;;;;;;88.75;77.75;;;;;;;;5114844;27;13667;-67
2021/01/29 11:20:36;;;;;;;;;96.50;83.50;;;;;;;;5096597;27;782659;-64
2021/01/29 11:24:56;;;;;;;;;94.25;82.50;;;;;;;;5112279;27;9912;-67
2021/01/29 11:27:26;;;;;;;;;97.75;81.25;;;;;;;;5041022;27;10983;-66
2021/01/29 11:32:38;;;;;;;;;85.75;65.75;;;;;;;;5137588;27;13687;-65
2021/01/29 12:23:18;;;;;;;;;93.75;80.25;;;;;;;;5075106;27;13511;-68
2021/01/29 12:25:54;;;;;;;;;97.25;86.75;;;;;;;;5030186;28;10309;-67
2021/01/29 12:28:28;;;;;;;;;96.00;77.25;;;;;;;;5082345;28;8858;-68
2021/01/29 12:31:03;;;;;;;;;94.00;78.50;;;;;;;;5077776;28;9563;-66
2021/01/29 12:33:30;;;;;;;;;98.75;85.00;;;;;;;;5072697;28;8858;-68
2021/01/29 12:35:59;;;;;;;;;100.25;86.50;;;;;;;;5073114;28;8916;-69
2021/01/29 12:38:29;;;;;;;;;93.00;77.50;;;;;;;;5073558;28;8845;-68
2021/01/29 12:41:03;;;;;;;;;95.75;79.50;;;;;;;;5077085;28;8842;-68
2021/01/29 12:43:34;;;;;;;;;96.25;85.00;;;;;;;;5073021;28;8849;-68
2021/01/29 12:46:03;;;;;;;;;97.25;82.00;;;;;;;;5073613;28;8968;-67
2021/01/29 12:48:44;;;;;;;;;95.25;79.75;;;;;;;;5073977;28;8980;-69
2021/01/29 12:51:14;;;;;;;;;93.00;79.50;;;;;;;;5073045;28;8885;-67
2021/01/29 12:53:48;;;;;;;;;95.75;83.75;;;;;;;;5072686;28;8975;-68
2021/01/29 12:56:23;;;;;;;;;94.50;83.00;;;;;;;;5073783;28;8855;-66
2021/01/29 12:58:51;;;;;;;;;87.50;71.25;;;;;;;;5072682;28;8868;-67
2021/01/29 13:01:22;;;;;;;;;96.75;83.50;;;;;;;;5071323;28;8865;-68
2021/01/29 13:03:52;;;;;;;;;102.00;90.25;;;;;;;;5069543;28;8983;-67
2021/01/29 13:06:27;;;;;;;;;95.50;84.25;;;;;;;;5074749;28;8839;-67
2021/01/29 13:09:07;;;;;;;;;93.25;80.75;;;;;;;;5073454;28;8898;-67
2021/01/29 13:11:46;;;;;;;;;97.00;85.75;;;;;;;;5075151;28;8872;-69
2021/01/29 13:14:17;;;;;;;;;101.25;87.75;;;;;;;;5076633;28;9008;-68
2021/01/29 13:16:48;;;;;;;;;96.50;84.25;;;;;;;;5074204;28;8851;-67
2021/01/29 13:19:23;;;;;;;;;93.75;77.75;;;;;;;;5074866;28;9662;-67
2021/01/29 13:21:50;;;;;;;;;99.75;89.75;;;;;;;;5072569;28;9585;-68
2021/01/29 13:24:20;;;;;;;;;87.25;66.00;;;;;;;;5073043;28;8874;-67
2021/01/29 13:26:46;;;;;;;;;102.00;88.75;;;;;;;;5074330;28;8869;-75
2021/01/29 13:29:17;;;;;;;;;96.25;85.75;;;;;;;;5073700;28;8866;-75
2021/01/29 13:31:43;;;;;;;;;92.25;74.75;;;;;;;;5071047;28;8861;-75
2021/01/29 13:34:15;;;;;;;;;99.25;87.75;;;;;;;;5066539;28;8957;-76
2021/01/29 13:36:44;;;;;;;;;100.00;87.00;;;;;;;;5062298;28;8857;-73
2021/01/29 13:39:14;;;;;;;;;97.00;82.00;;;;;;;;5062401;28;8986;-73
2021/01/29 13:41:46;;;;;;;;;95.00;75.00;;;;;;;;5058965;28;8910;-72
2021/01/29 13:44:20;;;;;;;;;93.00;72.00;;;;;;;;5062145;28;8827;-74
2021/01/29 13:46:49;;;;;;;;;94.50;79.50;;;;;;;;5060452;28;8882;-73
2021/01/29 13:49:25;;;;;;;;;87.00;68.50;;;;;;;;5058750;28;8960;-72
2021/01/29 13:51:52;;;;;;;;;87.00;67.00;;;;;;;;5060966;28;8882;-66
2021/01/29 13:54:27;;;;;;;;;85.25;67.00;;;;;;;;5060790;28;8936;-66
2021/01/29 13:56:56;;;;;;;;;74.00;58.25;;;;;;;;5064886;28;9050;-65
2021/01/29 13:59:26;;;;;;;;;80.00;61.50;;;;;;;;5057682;28;8945;-65
2021/01/29 14:01:57;;;;;;;;;81.50;64.50;;;;;;;;5054540;28;8853;-65
2021/01/29 14:04:24;;;;;;;;;79.50;63.50;;;;;;;;5054085;28;8988;-66
2021/01/29 14:06:51;;;;;;;;;79.25;64.00;;;;;;;;5055237;28;9530;-66
2021/01/29 14:09:17;;;;;;;;;80.00;62.00;;;;;;;;5056611;28;8885;-65
2021/01/29 14:12:00;;;;;;;;;81.75;64.50;;;;;;;;5054772;28;8967;-69
2021/01/29 14:14:33;;;;;;;;;81.50;63.75;;;;;;;;5054248;28;9162;-69
2021/01/29 14:17:03;;;;;;;;;83.75;65.00;;;;;;;;5054645;28;8937;-69
2021/01/29 14:19:36;;;;;;;;;88.50;71.00;;;;;;;;5056878;28;8873;-69
2021/01/29 14:22:06;;;;;;;;;87.50;68.25;;;;;;;;5054660;28;8839;-68
2021/01/29 14:24:39;;;;;;;;;86.50;68.00;;;;;;;;5060153;28;8854;-68
2021/01/29 14:27:14;;;;;;;;;91.25;73.25;;;;;;;;5053669;28;8838;-68
2021/01/29 14:29:42;;;;;;;;;91.50;72.75;;;;;;;;5058053;28;8853;-66
2021/01/29 14:32:18;;;;;;;;;88.75;70.25;;;;;;;;5056738;28;8962;-66
2021/01/29 14:34:48;;;;;;;;;86.25;69.00;;;;;;;;5060053;28;8849;-66
2021/01/29 14:37:20;;;;;;;;;86.75;67.00;;;;;;;;5056253;28;8928;-67
2021/01/29 14:39:54;;;;;;;;;82.75;63.50;;;;;;;;5056224;28;8837;-67
2021/01/29 14:42:27;;;;;;;;;79.50;64.00;;;;;;;;5059320;28;9001;-66
2021/01/29 14:45:02;;;;;;;;;79.25;63.25;;;;;;;;5054031;28;9632;-67
2021/01/29 14:47:52;;;;;;;;;84.00;65.00;;;;;;;;5057301;28;8871;-69
2021/01/29 14:50:24;;;;;;;;;80.25;62.50;;;;;;;;5058563;28;9739;-65
2021/01/29 14:52:58;;;;;;;;;83.75;66.25;;;;;;;;5059578;28;9724;-66
2021/01/29 14:55:29;;;;;;;;;85.50;66.75;;;;;;;;5056225;28;9725;-66
2021/01/29 14:57:56;;;;;;;;;83.25;65.00;;;;;;;;5059488;28;8968;-68
2021/01/29 15:00:27;;;;;;;;;86.00;69.00;;;;;;;;5057566;28;8988;-66
2021/01/29 15:02:56;;;;;;;;;80.25;64.75;;;;;;;;5056142;28;8968;-66
2021/01/29 15:05:25;;;;;;;;;86.25;65.50;;;;;;;;5058773;28;8979;-67
2021/01/29 15:07:51;;;;;;;;;83.50;65.00;;;;;;;;5060248;28;9044;-67
2021/01/29 15:10:19;;;;;;;;;87.25;69.50;;;;;;;;5060358;28;8867;-66
2021/01/29 15:12:49;;;;;;;;;88.75;71.00;;;;;;;;5059327;28;8823;-67
2021/01/29 15:15:42;;;;;;;;;87.50;69.25;;;;;;;;5059360;28;8849;-67
2021/01/29 15:18:11;;;;;;;;;89.25;72.00;;;;;;;;5023678;28;8857;-66
2021/01/29 15:20:40;;;;;;;;;84.25;64.75;;;;;;;;5059218;28;8851;-67
2021/01/29 15:23:11;;;;;;;;;87.75;68.00;;;;;;;;5059015;28;8822;-67
2021/01/29 15:25:37;;;;;;;;;90.25;71.50;;;;;;;;5060330;28;8965;-67
2021/01/29 15:28:16;;;;;;;;;82.00;64.50;;;;;;;;5061130;28;8965;-67
2021/01/29 15:30:42;;;;;;;;;90.00;66.50;;;;;;;;5059348;28;8837;-67
2021/01/29 15:33:14;;;;;;;;;88.75;72.50;;;;;;;;5058847;28;8883;-67
2021/01/29 15:35:40;;;;;;;;;91.25;71.25;;;;;;;;5060440;28;8850;-66
2021/01/29 15:38:11;;;;;;;;;88.50;67.00;;;;;;;;5056794;28;8833;-66
2021/01/29 15:40:42;;;;;;;;;87.00;67.00;;;;;;;;5059203;28;8969;-66
2021/01/29 15:43:31;;;;;;;;;89.50;69.75;;;;;;;;5058523;28;9061;-68
2021/01/29 15:45:58;;;;;;;;;89.25;72.00;;;;;;;;5054575;28;8953;-67
2021/01/29 15:48:41;;;;;;;;;90.25;73.25;;;;;;;;5059023;28;8973;-67
2021/01/29 15:51:09;;;;;;;;;88.25;71.25;;;;;;;;5049751;28;9112;-67
2021/01/29 15:53:58;;;;;;;;;90.50;76.00;;;;;;;;5060062;28;9689;-67
2021/01/29 15:56:26;;;;;;;;;92.50;79.25;;;;;;;;5049359;28;8980;-66
2021/01/29 15:58:53;;;;;;;;;94.50;79.25;;;;;;;;5057826;28;8902;-67
2021/01/29 16:01:21;;;;;;;;;93.00;78.25;;;;;;;;5053214;28;8865;-67
2021/01/29 16:03:47;;;;;;;;;86.75;71.00;;;;;;;;5058151;28;8907;-67
2021/01/29 16:06:15;;;;;;;;;89.50;73.50;;;;;;;;5055269;28;8854;-67
2021/01/29 16:08:43;;;;;;;;;90.25;75.00;;;;;;;;5057669;28;8977;-68
2021/01/29 16:11:10;;;;;;;;;16.00;9.50;;;;;;;;5058080;28;8823;-68
2021/01/29 16:13:37;;;;;;;;;91.00;76.75;;;;;;;;5061211;28;9701;-66